sensor_id;sensor_type;location;lat;lon;timestamp;temperature;humidity
4461;DHT22;2243;48.812;9.232;2023-04-06T00:00:40;3.10;99.90
4461;DHT22;2243;48.812;9.232;2023-04-06T00:03:11;3.10;99.90
4461;DHT22;2243;48.812;9.232;2023-04-06T00:05:42;3.30;99.90
4461;DHT22;2243;48.812;9.232;2023-04-06T00:08:13;3.20;99.90
4461;DHT22;2243;48.812;9.232;2023-04-06T00:10:44;3.00;99.90
4461;DHT22;2243;48.812;9.232;2023-04-06T00:13:15;3.00;99.90
4461;DHT22;2243;48.812;9.232;2023-04-06T00:15:46;2.90;99.90
4461;DHT22;2243;48.812;9.232;2023-04-06T00:18:17;2.70;99.90
4461;DHT22;2243;48.812;9.232;2023-04-06T00:20:48;2.90;99.90
4461;DHT22;2243;48.812;9.232;2023-04-06T00:23:19;2.80;99.90
4461;DHT22;2243;48.812;9.232;2023-04-06T00:25:50;2.80;99.90
4461;DHT22;2243;48.812;9.232;2023-04-06T00:28:21;2.70;99.90
4461;DHT22;2243;48.812;9.232;2023-04-06T00:30:56;2.60;99.90
4461;DHT22;2243;48.812;9.232;2023-04-06T00:33:26;2.40;99.90
4461;DHT22;2243;48.812;9.232;2023-04-06T00:35:57;2.30;99.90
4461;DHT22;2243;48.812;9.232;2023-04-06T00:38:28;2.40;99.90
4461;DHT22;2243;48.812;9.232;2023-04-06T00:40:59;2.30;99.90
4461;DHT22;2243;48.812;9.232;2023-04-06T00:43:31;2.20;99.90
4461;DHT22;2243;48.812;9.232;2023-04-06T00:46:02;2.30;99.90
4461;DHT22;2243;48.812;9.232;2023-04-06T00:48:33;2.30;99.90
4461;DHT22;2243;48.812;9.232;2023-04-06T00:51:04;2.20;99.90
4461;DHT22;2243;48.812;9.232;2023-04-06T00:53:35;2.10;99.90
4461;DHT22;2243;48.812;9.232;2023-04-06T00:56:06;2.10;99.90
4461;DHT22;2243;48.812;9.232;2023-04-06T00:58:40;2.10;99.90
4461;DHT22;2243;48.812;9.232;2023-04-06T01:01:11;2.10;99.90
4461;DHT22;2243;48.812;9.232;2023-04-06T01:03:42;2.10;99.90
4461;DHT22;2243;48.812;9.232;2023-04-06T01:06:14;2.00;99.90
4461;DHT22;2243;48.812;9.232;2023-04-06T01:08:45;2.00;99.90
4461;DHT22;2243;48.812;9.232;2023-04-06T01:11:17;2.00;99.90
4461;DHT22;2243;48.812;9.232;2023-04-06T01:13:48;1.90;99.90
4461;DHT22;2243;48.812;9.232;2023-04-06T01:16:19;1.90;99.90
4461;DHT22;2243;48.812;9.232;2023-04-06T01:18:50;1.90;99.90
4461;DHT22;2243;48.812;9.232;2023-04-06T01:21:21;1.90;99.90
4461;DHT22;2243;48.812;9.232;2023-04-06T01:23:52;2.00;99.90
4461;DHT22;2243;48.812;9.232;2023-04-06T01:26:23;2.00;99.90
4461;DHT22;2243;48.812;9.232;2023-04-06T01:28:54;2.00;99.90
4461;DHT22;2243;48.812;9.232;2023-04-06T01:31:26;2.00;99.90
4461;DHT22;2243;48.812;9.232;2023-04-06T01:33:57;1.90;99.90
4461;DHT22;2243;48.812;9.232;2023-04-06T01:36:28;2.00;99.90
4461;DHT22;2243;48.812;9.232;2023-04-06T01:38:58;2.00;99.90
4461;DHT22;2243;48.812;9.232;2023-04-06T01:41:30;2.00;99.90
4461;DHT22;2243;48.812;9.232;2023-04-06T01:44:01;1.90;99.90
4461;DHT22;2243;48.812;9.232;2023-04-06T01:46:32;1.80;99.90
4461;DHT22;2243;48.812;9.232;2023-04-06T01:49:03;1.70;99.90
4461;DHT22;2243;48.812;9.232;2023-04-06T01:51:34;1.70;99.90
4461;DHT22;2243;48.812;9.232;2023-04-06T01:54:05;1.70;99.90
4461;DHT22;2243;48.812;9.232;2023-04-06T01:56:36;1.60;99.90
4461;DHT22;2243;48.812;9.232;2023-04-06T01:59:07;1.70;99.90
4461;DHT22;2243;48.812;9.232;2023-04-06T02:01:39;1.60;99.90
4461;DHT22;2243;48.812;9.232;2023-04-06T02:04:10;1.60;99.90
4461;DHT22;2243;48.812;9.232;2023-04-06T02:06:40;1.60;99.90
4461;DHT22;2243;48.812;9.232;2023-04-06T02:09:11;1.50;99.90
4461;DHT22;2243;48.812;9.232;2023-04-06T02:11:42;1.50;99.90
4461;DHT22;2243;48.812;9.232;2023-04-06T02:14:13;1.50;99.90
4461;DHT22;2243;48.812;9.232;2023-04-06T02:16:44;1.50;99.90
4461;DHT22;2243;48.812;9.232;2023-04-06T02:19:15;1.40;99.90
4461;DHT22;2243;48.812;9.232;2023-04-06T02:21:46;1.40;99.90
4461;DHT22;2243;48.812;9.232;2023-04-06T02:24:17;1.40;99.90
4461;DHT22;2243;48.812;9.232;2023-04-06T02:26:48;1.40;99.90
4461;DHT22;2243;48.812;9.232;2023-04-06T02:29:19;1.40;99.90
4461;DHT22;2243;48.812;9.232;2023-04-06T02:31:50;1.40;99.90
4461;DHT22;2243;48.812;9.232;2023-04-06T02:34:21;1.40;99.90
4461;DHT22;2243;48.812;9.232;2023-04-06T02:36:52;1.30;99.90
4461;DHT22;2243;48.812;9.232;2023-04-06T02:39:23;1.40;99.90
4461;DHT22;2243;48.812;9.232;2023-04-06T02:41:55;1.40;99.90
4461;DHT22;2243;48.812;9.232;2023-04-06T02:44:27;1.40;99.90
4461;DHT22;2243;48.812;9.232;2023-04-06T02:46:58;1.30;99.90
4461;DHT22;2243;48.812;9.232;2023-04-06T02:49:29;1.20;99.90
4461;DHT22;2243;48.812;9.232;2023-04-06T02:52:00;1.20;99.90
4461;DHT22;2243;48.812;9.232;2023-04-06T02:54:31;1.20;99.90
4461;DHT22;2243;48.812;9.232;2023-04-06T02:57:02;1.20;99.90
4461;DHT22;2243;48.812;9.232;2023-04-06T02:59:33;1.20;99.90
4461;DHT22;2243;48.812;9.232;2023-04-06T03:02:04;1.20;99.90
4461;DHT22;2243;48.812;9.232;2023-04-06T03:04:34;1.20;99.90
4461;DHT22;2243;48.812;9.232;2023-04-06T03:07:05;1.20;99.90
4461;DHT22;2243;48.812;9.232;2023-04-06T03:09:37;1.20;99.90
4461;DHT22;2243;48.812;9.232;2023-04-06T03:12:09;1.30;99.90
4461;DHT22;2243;48.812;9.232;2023-04-06T03:14:40;1.30;99.90
4461;DHT22;2243;48.812;9.232;2023-04-06T03:17:11;1.40;99.90
4461;DHT22;2243;48.812;9.232;2023-04-06T03:19:41;1.50;99.90
4461;DHT22;2243;48.812;9.232;2023-04-06T03:22:12;1.40;99.90
4461;DHT22;2243;48.812;9.232;2023-04-06T03:24:43;1.40;99.90
4461;DHT22;2243;48.812;9.232;2023-04-06T03:27:14;1.40;99.90
4461;DHT22;2243;48.812;9.232;2023-04-06T03:29:45;1.40;99.90
4461;DHT22;2243;48.812;9.232;2023-04-06T03:32:16;1.30;99.90
4461;DHT22;2243;48.812;9.232;2023-04-06T03:34:47;1.40;99.90
4461;DHT22;2243;48.812;9.232;2023-04-06T03:37:18;1.50;99.90
4461;DHT22;2243;48.812;9.232;2023-04-06T03:39:49;1.60;99.90
4461;DHT22;2243;48.812;9.232;2023-04-06T03:42:19;1.60;99.90
4461;DHT22;2243;48.812;9.232;2023-04-06T03:44:50;1.50;99.90
4461;DHT22;2243;48.812;9.232;2023-04-06T03:47:22;1.50;99.90
4461;DHT22;2243;48.812;9.232;2023-04-06T03:49:53;1.50;99.90
4461;DHT22;2243;48.812;9.232;2023-04-06T03:52:24;1.40;99.90
4461;DHT22;2243;48.812;9.232;2023-04-06T03:54:54;1.40;99.90
4461;DHT22;2243;48.812;9.232;2023-04-06T03:57:25;1.50;99.90
4461;DHT22;2243;48.812;9.232;2023-04-06T03:59:56;1.40;99.90
4461;DHT22;2243;48.812;9.232;2023-04-06T04:02:27;1.50;99.90
4461;DHT22;2243;48.812;9.232;2023-04-06T04:04:58;1.50;99.90
4461;DHT22;2243;48.812;9.232;2023-04-06T04:07:30;1.60;99.90
4461;DHT22;2243;48.812;9.232;2023-04-06T04:10:01;1.60;99.90
4461;DHT22;2243;48.812;9.232;2023-04-06T04:12:32;1.70;99.90
4461;DHT22;2243;48.812;9.232;2023-04-06T04:15:03;1.60;99.90
4461;DHT22;2243;48.812;9.232;2023-04-06T04:17:34;1.50;99.90
4461;DHT22;2243;48.812;9.232;2023-04-06T04:20:05;1.50;99.90
4461;DHT22;2243;48.812;9.232;2023-04-06T04:22:37;1.40;99.90
4461;DHT22;2243;48.812;9.232;2023-04-06T04:25:08;1.30;99.90
4461;DHT22;2243;48.812;9.232;2023-04-06T04:27:40;1.20;99.90
4461;DHT22;2243;48.812;9.232;2023-04-06T04:30:11;1.20;99.90
4461;DHT22;2243;48.812;9.232;2023-04-06T04:32:42;1.10;99.90
4461;DHT22;2243;48.812;9.232;2023-04-06T04:35:13;1.00;99.90
4461;DHT22;2243;48.812;9.232;2023-04-06T04:37:44;1.00;99.90
4461;DHT22;2243;48.812;9.232;2023-04-06T04:40:15;1.10;99.90
4461;DHT22;2243;48.812;9.232;2023-04-06T04:42:47;1.10;99.90
4461;DHT22;2243;48.812;9.232;2023-04-06T04:45:18;1.20;99.90
4461;DHT22;2243;48.812;9.232;2023-04-06T04:47:48;1.20;99.90
4461;DHT22;2243;48.812;9.232;2023-04-06T04:50:19;1.10;99.90
4461;DHT22;2243;48.812;9.232;2023-04-06T04:52:50;1.10;99.90
4461;DHT22;2243;48.812;9.232;2023-04-06T04:55:21;1.00;99.90
4461;DHT22;2243;48.812;9.232;2023-04-06T04:57:52;1.00;99.90
4461;DHT22;2243;48.812;9.232;2023-04-06T05:00:23;1.00;99.90
4461;DHT22;2243;48.812;9.232;2023-04-06T05:02:54;1.00;99.90
4461;DHT22;2243;48.812;9.232;2023-04-06T05:05:25;1.00;99.90
4461;DHT22;2243;48.812;9.232;2023-04-06T05:07:56;1.10;99.90
4461;DHT22;2243;48.812;9.232;2023-04-06T05:10:27;1.20;99.90
4461;DHT22;2243;48.812;9.232;2023-04-06T05:12:58;1.10;99.90
4461;DHT22;2243;48.812;9.232;2023-04-06T05:15:29;1.00;99.90
4461;DHT22;2243;48.812;9.232;2023-04-06T05:18:01;1.10;99.90
4461;DHT22;2243;48.812;9.232;2023-04-06T05:20:32;1.10;99.90
4461;DHT22;2243;48.812;9.232;2023-04-06T05:23:03;1.00;99.90
4461;DHT22;2243;48.812;9.232;2023-04-06T05:25:34;1.10;99.90
4461;DHT22;2243;48.812;9.232;2023-04-06T05:28:05;1.10;99.90
4461;DHT22;2243;48.812;9.232;2023-04-06T05:30:36;1.10;99.90
4461;DHT22;2243;48.812;9.232;2023-04-06T05:33:07;1.10;99.90
4461;DHT22;2243;48.812;9.232;2023-04-06T05:35:38;1.20;99.90
4461;DHT22;2243;48.812;9.232;2023-04-06T05:38:09;1.20;99.90
4461;DHT22;2243;48.812;9.232;2023-04-06T05:40:40;1.20;99.90
4461;DHT22;2243;48.812;9.232;2023-04-06T05:43:12;1.20;99.90
4461;DHT22;2243;48.812;9.232;2023-04-06T05:45:44;1.10;99.90
4461;DHT22;2243;48.812;9.232;2023-04-06T05:48:16;1.30;99.90
4461;DHT22;2243;48.812;9.232;2023-04-06T05:50:50;1.50;99.90
4461;DHT22;2243;48.812;9.232;2023-04-06T05:53:21;1.50;99.90
4461;DHT22;2243;48.812;9.232;2023-04-06T05:55:52;1.60;99.90
4461;DHT22;2243;48.812;9.232;2023-04-06T05:58:22;1.80;99.90
4461;DHT22;2243;48.812;9.232;2023-04-06T06:00:58;1.90;99.90
4461;DHT22;2243;48.812;9.232;2023-04-06T06:03:34;1.90;99.90
4461;DHT22;2243;48.812;9.232;2023-04-06T06:06:05;2.00;99.90
4461;DHT22;2243;48.812;9.232;2023-04-06T06:08:36;2.10;99.90
4461;DHT22;2243;48.812;9.232;2023-04-06T06:11:07;2.20;99.90
4461;DHT22;2243;48.812;9.232;2023-04-06T06:13:38;2.10;99.90
4461;DHT22;2243;48.812;9.232;2023-04-06T06:16:08;2.20;99.90
4461;DHT22;2243;48.812;9.232;2023-04-06T06:18:39;2.30;99.90
4461;DHT22;2243;48.812;9.232;2023-04-06T06:21:11;2.40;99.90
4461;DHT22;2243;48.812;9.232;2023-04-06T06:23:43;2.50;99.90
4461;DHT22;2243;48.812;9.232;2023-04-06T06:26:14;2.60;99.90
4461;DHT22;2243;48.812;9.232;2023-04-06T06:28:45;2.60;99.90
4461;DHT22;2243;48.812;9.232;2023-04-06T06:31:16;2.80;99.90
4461;DHT22;2243;48.812;9.232;2023-04-06T06:33:48;2.80;99.90
4461;DHT22;2243;48.812;9.232;2023-04-06T06:36:21;2.90;99.90
4461;DHT22;2243;48.812;9.232;2023-04-06T06:38:52;3.00;99.90
4461;DHT22;2243;48.812;9.232;2023-04-06T06:41:25;3.00;99.90
4461;DHT22;2243;48.812;9.232;2023-04-06T06:43:56;3.10;99.90
4461;DHT22;2243;48.812;9.232;2023-04-06T06:46:27;3.10;99.90
4461;DHT22;2243;48.812;9.232;2023-04-06T06:48:58;3.30;99.90
4461;DHT22;2243;48.812;9.232;2023-04-06T06:51:29;3.40;99.90
4461;DHT22;2243;48.812;9.232;2023-04-06T06:54:00;3.40;99.90
4461;DHT22;2243;48.812;9.232;2023-04-06T06:56:31;3.50;99.90
4461;DHT22;2243;48.812;9.232;2023-04-06T06:59:02;3.60;99.90
4461;DHT22;2243;48.812;9.232;2023-04-06T07:01:33;3.80;99.90
4461;DHT22;2243;48.812;9.232;2023-04-06T07:04:05;3.70;99.90
4461;DHT22;2243;48.812;9.232;2023-04-06T07:06:37;3.90;99.90
4461;DHT22;2243;48.812;9.232;2023-04-06T07:09:08;3.90;99.90
4461;DHT22;2243;48.812;9.232;2023-04-06T07:11:39;3.90;99.90
4461;DHT22;2243;48.812;9.232;2023-04-06T07:14:10;4.10;99.90
4461;DHT22;2243;48.812;9.232;2023-04-06T07:16:42;4.20;99.90
4461;DHT22;2243;48.812;9.232;2023-04-06T07:19:15;4.20;99.90
4461;DHT22;2243;48.812;9.232;2023-04-06T07:21:46;4.40;99.90
4461;DHT22;2243;48.812;9.232;2023-04-06T07:24:17;4.50;99.90
4461;DHT22;2243;48.812;9.232;2023-04-06T07:26:48;4.70;99.90
4461;DHT22;2243;48.812;9.232;2023-04-06T07:29:19;4.80;99.90
4461;DHT22;2243;48.812;9.232;2023-04-06T07:31:50;4.80;99.90
4461;DHT22;2243;48.812;9.232;2023-04-06T07:34:21;4.90;99.90
4461;DHT22;2243;48.812;9.232;2023-04-06T07:36:52;5.10;99.70
4461;DHT22;2243;48.812;9.232;2023-04-06T07:39:25;5.00;99.50
4461;DHT22;2243;48.812;9.232;2023-04-06T07:41:57;5.20;99.60
4461;DHT22;2243;48.812;9.232;2023-04-06T07:44:28;5.30;99.20
4461;DHT22;2243;48.812;9.232;2023-04-06T07:46:59;5.40;98.90
4461;DHT22;2243;48.812;9.232;2023-04-06T07:49:30;5.50;98.60
4461;DHT22;2243;48.812;9.232;2023-04-06T07:52:03;5.60;98.50
4461;DHT22;2243;48.812;9.232;2023-04-06T07:54:34;5.60;98.60
4461;DHT22;2243;48.812;9.232;2023-04-06T07:57:05;5.70;98.80
4461;DHT22;2243;48.812;9.232;2023-04-06T07:59:36;5.90;98.80
4461;DHT22;2243;48.812;9.232;2023-04-06T08:02:07;6.00;98.30
4461;DHT22;2243;48.812;9.232;2023-04-06T08:04:38;6.10;98.10
4461;DHT22;2243;48.812;9.232;2023-04-06T08:07:09;6.10;98.00
4461;DHT22;2243;48.812;9.232;2023-04-06T08:09:40;6.30;98.00
4461;DHT22;2243;48.812;9.232;2023-04-06T08:12:11;6.30;98.00
4461;DHT22;2243;48.812;9.232;2023-04-06T08:14:42;6.40;97.90
4461;DHT22;2243;48.812;9.232;2023-04-06T08:17:13;6.60;97.70
4461;DHT22;2243;48.812;9.232;2023-04-06T08:19:44;6.60;97.60
4461;DHT22;2243;48.812;9.232;2023-04-06T08:22:15;6.80;97.70
4461;DHT22;2243;48.812;9.232;2023-04-06T08:24:46;6.80;97.40
4461;DHT22;2243;48.812;9.232;2023-04-06T08:27:17;6.90;97.10
4461;DHT22;2243;48.812;9.232;2023-04-06T08:29:49;7.00;97.20
4461;DHT22;2243;48.812;9.232;2023-04-06T08:32:21;7.10;97.10
4461;DHT22;2243;48.812;9.232;2023-04-06T08:34:55;7.10;96.90
4461;DHT22;2243;48.812;9.232;2023-04-06T08:37:26;7.40;96.60
4461;DHT22;2243;48.812;9.232;2023-04-06T08:39:57;7.50;96.50
4461;DHT22;2243;48.812;9.232;2023-04-06T08:42:32;7.60;96.80
4461;DHT22;2243;48.812;9.232;2023-04-06T08:45:04;7.70;96.60
4461;DHT22;2243;48.812;9.232;2023-04-06T08:47:36;7.80;96.30
4461;DHT22;2243;48.812;9.232;2023-04-06T08:50:09;7.90;95.90
4461;DHT22;2243;48.812;9.232;2023-04-06T08:52:46;8.00;95.60
4461;DHT22;2243;48.812;9.232;2023-04-06T08:55:18;8.00;95.10
4461;DHT22;2243;48.812;9.232;2023-04-06T08:57:49;8.20;95.00
4461;DHT22;2243;48.812;9.232;2023-04-06T09:00:21;8.20;94.40
4461;DHT22;2243;48.812;9.232;2023-04-06T09:02:53;8.30;93.30
4461;DHT22;2243;48.812;9.232;2023-04-06T09:05:26;8.40;92.60
4461;DHT22;2243;48.812;9.232;2023-04-06T09:07:57;8.50;92.00
4461;DHT22;2243;48.812;9.232;2023-04-06T09:10:28;8.50;91.80
4461;DHT22;2243;48.812;9.232;2023-04-06T09:13:07;8.60;92.10
4461;DHT22;2243;48.812;9.232;2023-04-06T09:15:38;8.70;91.60
4461;DHT22;2243;48.812;9.232;2023-04-06T09:18:10;8.80;91.10
4461;DHT22;2243;48.812;9.232;2023-04-06T09:20:41;8.90;91.20
4461;DHT22;2243;48.812;9.232;2023-04-06T09:23:18;9.10;90.60
4461;DHT22;2243;48.812;9.232;2023-04-06T09:25:49;9.20;87.10
4461;DHT22;2243;48.812;9.232;2023-04-06T09:28:20;9.20;87.10
4461;DHT22;2243;48.812;9.232;2023-04-06T09:30:51;9.20;86.80
4461;DHT22;2243;48.812;9.232;2023-04-06T09:33:23;9.30;88.30
4461;DHT22;2243;48.812;9.232;2023-04-06T09:35:54;9.40;89.50
4461;DHT22;2243;48.812;9.232;2023-04-06T09:38:25;9.60;87.30
4461;DHT22;2243;48.812;9.232;2023-04-06T09:40:56;9.60;86.40
4461;DHT22;2243;48.812;9.232;2023-04-06T09:43:31;9.80;84.30
4461;DHT22;2243;48.812;9.232;2023-04-06T09:46:03;9.90;84.00
4461;DHT22;2243;48.812;9.232;2023-04-06T09:48:35;9.90;83.00
4461;DHT22;2243;48.812;9.232;2023-04-06T09:51:07;9.90;81.30
4461;DHT22;2243;48.812;9.232;2023-04-06T09:53:39;9.80;81.00
4461;DHT22;2243;48.812;9.232;2023-04-06T09:56:17;9.80;79.90
4461;DHT22;2243;48.812;9.232;2023-04-06T09:58:57;9.90;80.00
4461;DHT22;2243;48.812;9.232;2023-04-06T10:01:33;9.90;79.10
4461;DHT22;2243;48.812;9.232;2023-04-06T10:06:44;10.00;78.10
4461;DHT22;2243;48.812;9.232;2023-04-06T10:09:21;10.10;79.80
4461;DHT22;2243;48.812;9.232;2023-04-06T10:11:55;10.20;79.40
4461;DHT22;2243;48.812;9.232;2023-04-06T10:14:26;10.50;80.60
4461;DHT22;2243;48.812;9.232;2023-04-06T10:16:58;10.50;79.70
4461;DHT22;2243;48.812;9.232;2023-04-06T10:19:39;10.40;75.90
4461;DHT22;2243;48.812;9.232;2023-04-06T10:22:32;10.60;77.20
4461;DHT22;2243;48.812;9.232;2023-04-06T10:25:05;10.80;76.50
4461;DHT22;2243;48.812;9.232;2023-04-06T10:27:36;10.90;74.50
4461;DHT22;2243;48.812;9.232;2023-04-06T10:30:07;11.00;75.70
4461;DHT22;2243;48.812;9.232;2023-04-06T10:32:39;11.20;73.40
4461;DHT22;2243;48.812;9.232;2023-04-06T10:35:11;11.20;70.10
4461;DHT22;2243;48.812;9.232;2023-04-06T10:37:49;11.30;71.60
4461;DHT22;2243;48.812;9.232;2023-04-06T10:40:25;11.40;71.10
4461;DHT22;2243;48.812;9.232;2023-04-06T10:43:08;11.30;70.30
4461;DHT22;2243;48.812;9.232;2023-04-06T10:45:40;11.30;71.50
4461;DHT22;2243;48.812;9.232;2023-04-06T10:48:17;11.40;71.60
4461;DHT22;2243;48.812;9.232;2023-04-06T10:50:51;11.40;71.20
4461;DHT22;2243;48.812;9.232;2023-04-06T10:53:27;11.40;70.70
4461;DHT22;2243;48.812;9.232;2023-04-06T10:55:58;11.50;71.00
4461;DHT22;2243;48.812;9.232;2023-04-06T10:58:30;11.50;67.50
4461;DHT22;2243;48.812;9.232;2023-04-06T11:01:01;11.50;69.10
4461;DHT22;2243;48.812;9.232;2023-04-06T11:03:43;11.90;69.30
4461;DHT22;2243;48.812;9.232;2023-04-06T11:06:22;12.50;66.80
4461;DHT22;2243;48.812;9.232;2023-04-06T11:08:56;13.50;65.60
4461;DHT22;2243;48.812;9.232;2023-04-06T11:11:27;14.50;63.90
4461;DHT22;2243;48.812;9.232;2023-04-06T11:13:59;14.80;63.70
4461;DHT22;2243;48.812;9.232;2023-04-06T11:16:32;15.10;61.50
4461;DHT22;2243;48.812;9.232;2023-04-06T11:19:04;15.20;60.10
4461;DHT22;2243;48.812;9.232;2023-04-06T11:21:46;15.00;62.00
4461;DHT22;2243;48.812;9.232;2023-04-06T11:24:20;15.90;58.00
4461;DHT22;2243;48.812;9.232;2023-04-06T11:26:57;16.50;56.60
4461;DHT22;2243;48.812;9.232;2023-04-06T11:29:30;16.40;57.20
4461;DHT22;2243;48.812;9.232;2023-04-06T11:32:04;16.10;55.60
4461;DHT22;2243;48.812;9.232;2023-04-06T11:34:37;15.80;57.30
4461;DHT22;2243;48.812;9.232;2023-04-06T11:37:11;15.50;56.10
4461;DHT22;2243;48.812;9.232;2023-04-06T11:39:50;15.40;58.00
4461;DHT22;2243;48.812;9.232;2023-04-06T11:42:27;15.50;55.30
4461;DHT22;2243;48.812;9.232;2023-04-06T11:45:00;14.70;58.30
4461;DHT22;2243;48.812;9.232;2023-04-06T11:47:33;14.60;58.20
4461;DHT22;2243;48.812;9.232;2023-04-06T11:50:13;14.90;57.30
4461;DHT22;2243;48.812;9.232;2023-04-06T11:52:45;14.90;58.20
4461;DHT22;2243;48.812;9.232;2023-04-06T11:55:17;15.00;58.40
4461;DHT22;2243;48.812;9.232;2023-04-06T11:57:49;15.00;57.30
4461;DHT22;2243;48.812;9.232;2023-04-06T12:00:21;15.20;56.70
4461;DHT22;2243;48.812;9.232;2023-04-06T12:02:52;15.30;55.70
4461;DHT22;2243;48.812;9.232;2023-04-06T12:05:23;15.10;56.60
4461;DHT22;2243;48.812;9.232;2023-04-06T12:07:55;15.10;56.40
4461;DHT22;2243;48.812;9.232;2023-04-06T12:10:29;15.00;55.20
4461;DHT22;2243;48.812;9.232;2023-04-06T12:13:00;15.00;57.60
4461;DHT22;2243;48.812;9.232;2023-04-06T12:15:31;15.10;57.20
4461;DHT22;2243;48.812;9.232;2023-04-06T12:18:02;15.00;54.80
4461;DHT22;2243;48.812;9.232;2023-04-06T12:20:33;15.20;57.00
4461;DHT22;2243;48.812;9.232;2023-04-06T12:23:04;15.40;55.60
4461;DHT22;2243;48.812;9.232;2023-04-06T12:25:35;15.70;56.30
4461;DHT22;2243;48.812;9.232;2023-04-06T12:28:06;16.10;54.30
4461;DHT22;2243;48.812;9.232;2023-04-06T12:30:37;16.20;54.50
4461;DHT22;2243;48.812;9.232;2023-04-06T12:33:08;16.40;55.10
4461;DHT22;2243;48.812;9.232;2023-04-06T12:35:39;16.10;53.40
4461;DHT22;2243;48.812;9.232;2023-04-06T12:38:10;16.00;54.20
4461;DHT22;2243;48.812;9.232;2023-04-06T12:40:41;16.00;54.50
4461;DHT22;2243;48.812;9.232;2023-04-06T12:43:12;16.00;53.80
4461;DHT22;2243;48.812;9.232;2023-04-06T12:45:43;16.10;54.40
4461;DHT22;2243;48.812;9.232;2023-04-06T12:48:14;16.00;53.30
4461;DHT22;2243;48.812;9.232;2023-04-06T12:51:00;15.90;53.40
4461;DHT22;2243;48.812;9.232;2023-04-06T12:53:33;15.90;53.10
4461;DHT22;2243;48.812;9.232;2023-04-06T12:56:16;15.80;53.30
4461;DHT22;2243;48.812;9.232;2023-04-06T12:58:50;15.90;53.00
4461;DHT22;2243;48.812;9.232;2023-04-06T13:01:21;15.80;53.10
4461;DHT22;2243;48.812;9.232;2023-04-06T13:03:52;15.90;53.20
4461;DHT22;2243;48.812;9.232;2023-04-06T13:06:23;16.10;54.60
4461;DHT22;2243;48.812;9.232;2023-04-06T13:08:58;16.10;53.20
4461;DHT22;2243;48.812;9.232;2023-04-06T13:11:29;16.20;54.20
4461;DHT22;2243;48.812;9.232;2023-04-06T13:14:00;16.20;52.50
4461;DHT22;2243;48.812;9.232;2023-04-06T13:16:31;16.60;53.50
4461;DHT22;2243;48.812;9.232;2023-04-06T13:19:02;16.50;60.50
4461;DHT22;2243;48.812;9.232;2023-04-06T13:21:33;16.40;54.80
4461;DHT22;2243;48.812;9.232;2023-04-06T13:24:04;16.60;68.20
4461;DHT22;2243;48.812;9.232;2023-04-06T13:26:36;16.50;55.40
4461;DHT22;2243;48.812;9.232;2023-04-06T13:29:07;16.40;56.70
4461;DHT22;2243;48.812;9.232;2023-04-06T13:31:38;16.50;59.00
4461;DHT22;2243;48.812;9.232;2023-04-06T13:34:09;16.50;60.10
4461;DHT22;2243;48.812;9.232;2023-04-06T13:36:40;16.40;56.00
4461;DHT22;2243;48.812;9.232;2023-04-06T13:39:12;16.60;56.50
4461;DHT22;2243;48.812;9.232;2023-04-06T13:41:43;16.50;52.70
4461;DHT22;2243;48.812;9.232;2023-04-06T13:44:14;16.30;53.70
4461;DHT22;2243;48.812;9.232;2023-04-06T13:46:45;16.20;54.20
4461;DHT22;2243;48.812;9.232;2023-04-06T13:49:15;16.10;53.20
4461;DHT22;2243;48.812;9.232;2023-04-06T13:51:46;16.00;52.40
4461;DHT22;2243;48.812;9.232;2023-04-06T13:54:17;16.10;53.80
4461;DHT22;2243;48.812;9.232;2023-04-06T13:56:48;16.30;53.20
4461;DHT22;2243;48.812;9.232;2023-04-06T13:59:19;16.10;52.60
4461;DHT22;2243;48.812;9.232;2023-04-06T14:01:50;16.40;53.50
4461;DHT22;2243;48.812;9.232;2023-04-06T14:04:21;16.50;52.80
4461;DHT22;2243;48.812;9.232;2023-04-06T14:06:52;16.60;51.80
4461;DHT22;2243;48.812;9.232;2023-04-06T14:09:23;16.40;54.00
4461;DHT22;2243;48.812;9.232;2023-04-06T14:11:55;16.20;53.30
4461;DHT22;2243;48.812;9.232;2023-04-06T14:14:27;15.90;52.70
4461;DHT22;2243;48.812;9.232;2023-04-06T14:16:58;15.80;52.80
4461;DHT22;2243;48.812;9.232;2023-04-06T14:19:29;16.00;52.70
4461;DHT22;2243;48.812;9.232;2023-04-06T14:22:00;15.80;52.00
4461;DHT22;2243;48.812;9.232;2023-04-06T14:24:31;15.90;51.50
4461;DHT22;2243;48.812;9.232;2023-04-06T14:27:02;15.50;51.90
4461;DHT22;2243;48.812;9.232;2023-04-06T14:29:33;15.10;53.00
4461;DHT22;2243;48.812;9.232;2023-04-06T14:32:04;14.80;53.30
4461;DHT22;2243;48.812;9.232;2023-04-06T14:34:37;15.00;53.10
4461;DHT22;2243;48.812;9.232;2023-04-06T14:37:08;15.10;53.90
4461;DHT22;2243;48.812;9.232;2023-04-06T14:39:39;15.30;53.70
4461;DHT22;2243;48.812;9.232;2023-04-06T14:42:10;15.50;53.70
4461;DHT22;2243;48.812;9.232;2023-04-06T14:44:41;15.60;54.30
4461;DHT22;2243;48.812;9.232;2023-04-06T14:47:14;15.80;54.10
4461;DHT22;2243;48.812;9.232;2023-04-06T14:49:51;16.00;54.50
4461;DHT22;2243;48.812;9.232;2023-04-06T14:52:23;16.20;54.00
4461;DHT22;2243;48.812;9.232;2023-04-06T14:54:55;16.40;52.00
4461;DHT22;2243;48.812;9.232;2023-04-06T14:57:26;16.40;51.10
4461;DHT22;2243;48.812;9.232;2023-04-06T14:59:57;16.40;51.80
4461;DHT22;2243;48.812;9.232;2023-04-06T15:02:27;16.40;52.10
4461;DHT22;2243;48.812;9.232;2023-04-06T15:04:59;16.20;52.10
4461;DHT22;2243;48.812;9.232;2023-04-06T15:07:30;16.10;52.20
4461;DHT22;2243;48.812;9.232;2023-04-06T15:10:01;16.10;53.50
4461;DHT22;2243;48.812;9.232;2023-04-06T15:12:31;15.90;53.20
4461;DHT22;2243;48.812;9.232;2023-04-06T15:15:03;16.00;63.70
4461;DHT22;2243;48.812;9.232;2023-04-06T15:17:35;16.30;75.10
4461;DHT22;2243;48.812;9.232;2023-04-06T15:20:07;16.60;72.70
4461;DHT22;2243;48.812;9.232;2023-04-06T15:22:38;16.60;69.50
4461;DHT22;2243;48.812;9.232;2023-04-06T15:25:09;16.40;54.70
4461;DHT22;2243;48.812;9.232;2023-04-06T15:27:39;16.20;53.60
4461;DHT22;2243;48.812;9.232;2023-04-06T15:30:11;16.00;53.60
4461;DHT22;2243;48.812;9.232;2023-04-06T15:32:57;15.80;52.80
4461;DHT22;2243;48.812;9.232;2023-04-06T15:35:31;15.80;53.30
4461;DHT22;2243;48.812;9.232;2023-04-06T15:38:05;15.80;52.70
4461;DHT22;2243;48.812;9.232;2023-04-06T15:40:47;15.70;54.00
4461;DHT22;2243;48.812;9.232;2023-04-06T15:43:18;15.70;53.70
4461;DHT22;2243;48.812;9.232;2023-04-06T15:45:49;15.60;52.80
4461;DHT22;2243;48.812;9.232;2023-04-06T15:48:20;15.80;51.90
4461;DHT22;2243;48.812;9.232;2023-04-06T15:50:52;15.80;52.00
4461;DHT22;2243;48.812;9.232;2023-04-06T15:53:23;15.40;53.20
4461;DHT22;2243;48.812;9.232;2023-04-06T15:55:59;15.40;53.50
4461;DHT22;2243;48.812;9.232;2023-04-06T15:58:34;15.20;54.40
4461;DHT22;2243;48.812;9.232;2023-04-06T16:01:13;15.10;54.00
4461;DHT22;2243;48.812;9.232;2023-04-06T16:03:45;15.10;54.10
4461;DHT22;2243;48.812;9.232;2023-04-06T16:06:17;15.00;54.70
4461;DHT22;2243;48.812;9.232;2023-04-06T16:08:48;15.00;54.40
4461;DHT22;2243;48.812;9.232;2023-04-06T16:11:19;14.90;54.70
4461;DHT22;2243;48.812;9.232;2023-04-06T16:13:50;14.80;54.70
4461;DHT22;2243;48.812;9.232;2023-04-06T16:16:25;14.80;55.40
4461;DHT22;2243;48.812;9.232;2023-04-06T16:18:56;14.80;55.10
4461;DHT22;2243;48.812;9.232;2023-04-06T16:21:27;14.60;54.60
4461;DHT22;2243;48.812;9.232;2023-04-06T16:23:58;14.70;55.70
4461;DHT22;2243;48.812;9.232;2023-04-06T16:26:29;14.70;55.30
4461;DHT22;2243;48.812;9.232;2023-04-06T16:29:01;14.70;54.80
4461;DHT22;2243;48.812;9.232;2023-04-06T16:31:32;14.70;55.70
4461;DHT22;2243;48.812;9.232;2023-04-06T16:34:03;14.60;56.00
4461;DHT22;2243;48.812;9.232;2023-04-06T16:36:34;14.60;55.80
4461;DHT22;2243;48.812;9.232;2023-04-06T16:39:05;14.60;56.10
4461;DHT22;2243;48.812;9.232;2023-04-06T16:41:37;14.50;56.60
4461;DHT22;2243;48.812;9.232;2023-04-06T16:44:09;14.50;56.10